createdAt,value
2023-01-23T00:03:21.771Z,45.25
2023-01-23T00:08:26.369Z,40.25
2023-01-23T00:13:31.112Z,44.75
2023-01-23T00:18:35.861Z,38.25
2023-01-23T00:23:43.254Z,36.25
2023-01-23T00:28:48.513Z,40.25
2023-01-23T00:33:57.556Z,41.75
2023-01-23T00:39:02.456Z,35.50
2023-01-23T00:44:07.116Z,30.25
2023-01-23T00:49:11.667Z,30.00
2023-01-23T00:54:16.195Z,28.00
2023-01-23T00:59:20.819Z,28.00
2023-01-23T01:04:25.424Z,32.75
2023-01-23T01:09:30.047Z,32.25
2023-01-23T01:14:34.584Z,31.00
2023-01-23T01:19:38.820Z,31.25
2023-01-23T01:24:43.908Z,32.00
2023-01-23T01:42:31.567Z,26.67
2023-01-23T01:47:36.869Z,28.50
2023-01-23T01:52:41.364Z,25.50
2023-01-23T01:57:50.048Z,27.50
2023-01-23T02:03:02.610Z,23.50
2023-01-23T02:08:12.235Z,23.00
2023-01-23T02:13:33.615Z,22.00
2023-01-23T02:18:40.251Z,28.00
2023-01-23T02:23:57.150Z,18.00
2023-01-23T02:29:04.904Z,18.50
2023-01-23T02:34:18.191Z,21.25
2023-01-23T02:39:23.349Z,19.00
2023-01-23T02:44:33.294Z,23.50
2023-01-23T02:49:41.142Z,20.75
2023-01-23T02:54:46.677Z,19.50
2023-01-23T03:00:10.783Z,21.50
2023-01-23T03:05:16.210Z,26.25
2023-01-23T03:10:21.415Z,20.75
2023-01-23T03:15:26.176Z,27.75
2023-01-23T03:20:30.775Z,27.25
2023-01-23T03:25:35.367Z,24.75
2023-01-23T03:30:41.313Z,21.50
2023-01-23T03:35:45.925Z,20.50
2023-01-23T03:41:09.937Z,27.00
2023-01-23T03:46:14.929Z,23.00
2023-01-23T03:51:19.554Z,25.75
2023-01-23T03:56:24.164Z,29.50
2023-01-23T04:01:28.837Z,26.00
2023-01-23T04:06:33.681Z,27.50
2023-01-23T04:11:38.297Z,20.25
2023-01-23T04:16:44.195Z,23.50
2023-01-23T04:21:50.797Z,23.00
2023-01-23T04:26:56.750Z,22.00
2023-01-23T04:32:06.235Z,21.25
2023-01-23T04:37:15.798Z,24.25
2023-01-23T04:42:20.815Z,19.75
2023-01-23T04:47:34.486Z,24.00
2023-01-23T04:52:41.132Z,18.75
2023-01-23T04:57:45.727Z,29.00
2023-01-23T05:02:57.404Z,19.00
2023-01-23T05:08:02.345Z,18.50
2023-01-23T05:13:07.747Z,21.75
2023-01-23T05:18:12.355Z,24.50
2023-01-23T05:23:16.932Z,18.75
2023-01-23T05:28:27.500Z,19.00
2023-01-23T05:33:32.838Z,20.25
2023-01-23T05:38:37.824Z,18.25
2023-01-23T05:43:42.537Z,18.75
2023-01-23T05:49:04.568Z,18.00
2023-01-23T05:54:09.520Z,17.75
2023-01-23T05:59:18.065Z,17.75
2023-01-23T06:04:50.143Z,21.00
2023-01-23T06:10:01.795Z,23.25
2023-01-23T06:15:06.813Z,17.00
2023-01-23T06:20:13.516Z,19.25
2023-01-23T06:25:23.153Z,16.00
2023-01-23T06:30:30.189Z,21.00
2023-01-23T06:35:34.860Z,19.25
2023-01-23T06:40:39.467Z,20.50
2023-01-23T06:46:09.197Z,21.00
2023-01-23T06:51:14.309Z,20.75
2023-01-23T06:56:21.358Z,21.75
2023-01-23T07:01:27.648Z,21.00
2023-01-23T07:06:55.091Z,17.00
2023-01-23T07:12:00.952Z,17.50
2023-01-23T07:17:08.082Z,17.25
2023-01-23T07:22:13.065Z,22.00
2023-01-23T07:27:17.593Z,17.50
2023-01-23T07:32:22.199Z,21.75
2023-01-23T07:37:26.678Z,24.00
2023-01-23T07:42:31.135Z,18.25
2023-01-23T07:47:36.225Z,23.00
2023-01-23T07:52:41.723Z,21.00
2023-01-23T07:57:46.240Z,22.50
2023-01-23T08:02:51.004Z,21.25
2023-01-23T08:08:11.451Z,17.25
2023-01-23T08:13:17.478Z,22.75
2023-01-23T08:18:21.688Z,27.50
2023-01-23T08:23:27.308Z,18.50
2023-01-23T08:28:32.071Z,16.75
2023-01-23T08:33:37.719Z,21.25
2023-01-23T08:38:42.314Z,19.00
2023-01-23T08:43:47.420Z,22.00
2023-01-23T08:48:51.947Z,19.25
2023-01-23T08:53:57.071Z,21.75
2023-01-23T08:59:01.622Z,20.00
2023-01-23T09:04:06.193Z,22.50
2023-01-23T09:09:10.745Z,20.50
2023-01-23T09:14:15.393Z,20.50
2023-01-23T09:19:20.029Z,22.75
2023-01-23T09:24:24.451Z,23.75
2023-01-23T09:29:29.089Z,21.00
2023-01-23T09:34:33.770Z,20.00
2023-01-23T09:39:38.008Z,28.00
2023-01-23T09:44:44.093Z,23.00
2023-01-23T09:49:57.357Z,19.75
2023-01-23T09:55:06.283Z,24.50
2023-01-23T10:00:20.061Z,21.75
2023-01-23T10:05:32.159Z,20.75
2023-01-23T10:10:36.609Z,25.50
2023-01-23T10:15:40.798Z,23.75
2023-01-23T10:20:45.346Z,25.25
2023-01-23T10:25:51.215Z,20.75
2023-01-23T10:31:00.362Z,22.50
2023-01-23T10:36:07.681Z,20.75
2023-01-23T10:41:15.881Z,19.25
2023-01-23T10:46:40.132Z,18.00
2023-01-23T10:51:49.180Z,19.75
2023-01-23T10:56:56.147Z,25.25
2023-01-23T11:02:07.447Z,21.75
2023-01-23T11:07:16.317Z,17.50
2023-01-23T11:12:31.220Z,18.75
2023-01-23T11:17:35.676Z,21.50
2023-01-23T11:22:44.859Z,18.50
2023-01-23T11:27:58.261Z,18.00
2023-01-23T11:33:22.358Z,17.75
2023-01-23T11:38:33.294Z,18.75
2023-01-23T11:43:38.704Z,16.00
2023-01-23T11:48:58.353Z,17.00
2023-01-23T11:54:11.804Z,23.25
2023-01-23T11:59:33.548Z,26.75
2023-01-23T12:04:56.342Z,18.50
2023-01-23T12:10:06.922Z,18.00
2023-01-23T12:15:18.607Z,17.25
2023-01-23T12:20:28.913Z,20.75
2023-01-23T12:25:37.407Z,16.75
2023-01-23T12:30:41.537Z,17.25
2023-01-23T12:35:51.402Z,21.50
2023-01-23T12:41:04.553Z,17.25
2023-01-23T12:46:35.347Z,20.00
2023-01-23T12:51:40.901Z,22.00
2023-01-23T12:56:46.784Z,20.75
2023-01-23T13:01:59.426Z,19.00
2023-01-23T13:07:09.476Z,18.50
2023-01-23T13:12:46.027Z,19.50
2023-01-23T13:18:00.952Z,20.25
2023-01-23T13:23:24.416Z,18.25
2023-01-23T13:28:49.400Z,16.00
2023-01-23T13:33:58.683Z,17.25
2023-01-23T13:39:07.975Z,17.25
2023-01-23T13:44:13.126Z,24.50
2023-01-23T14:22:05.310Z,18.75
2023-01-23T14:27:13.179Z,21.00
2023-01-23T14:32:27.121Z,20.00
2023-01-23T14:37:39.186Z,21.00
2023-01-23T14:42:45.232Z,18.00
2023-01-23T14:47:59.651Z,18.75
2023-01-23T14:53:14.901Z,21.25
2023-01-23T14:58:27.186Z,18.25
2023-01-23T15:03:40.449Z,17.00
2023-01-23T15:08:45.728Z,20.00
2023-01-23T15:13:52.685Z,16.25
2023-01-23T15:18:59.777Z,20.25
2023-01-23T15:24:16.671Z,19.25
2023-01-23T15:29:22.646Z,19.75
2023-01-23T15:34:29.074Z,16.75
2023-01-23T15:39:42.712Z,15.75
2023-01-23T15:44:47.393Z,20.25
2023-01-23T15:49:52.043Z,17.50
2023-01-23T15:54:58.535Z,20.50
2023-01-23T16:00:03.311Z,17.50
2023-01-23T16:05:15.989Z,18.00
2023-01-23T16:10:22.519Z,16.75
2023-01-23T16:15:28.688Z,15.50
2023-01-23T16:20:44.271Z,16.25
2023-01-23T16:25:49.846Z,16.25
2023-01-23T16:30:54.975Z,18.25
2023-01-23T16:35:59.614Z,18.00
2023-01-23T16:41:05.381Z,21.50
2023-01-23T16:46:11.520Z,19.00
2023-01-23T16:51:20.184Z,17.50
2023-01-23T16:56:30.976Z,16.75
2023-01-23T17:01:38.627Z,15.00
2023-01-23T17:06:43.468Z,21.25
2023-01-23T17:11:52.975Z,18.50
2023-01-23T17:17:04.438Z,17.50
2023-01-23T17:22:15.094Z,18.00
2023-01-23T17:27:19.843Z,15.50
2023-01-23T17:32:36.628Z,18.25
2023-01-23T17:37:41.111Z,19.00
2023-01-23T17:42:45.446Z,18.75
2023-01-23T17:47:52.198Z,19.50
2023-01-23T17:52:57.273Z,19.00
2023-01-23T17:58:02.060Z,18.00
2023-01-23T18:03:08.648Z,17.25
2023-01-23T18:08:17.322Z,17.00
2023-01-23T18:13:33.789Z,20.00
2023-01-23T18:18:40.068Z,20.00
2023-01-23T18:23:44.662Z,15.50
2023-01-23T18:29:03.869Z,20.00
2023-01-23T18:34:08.348Z,15.00
2023-01-23T18:39:12.499Z,17.00
2023-01-23T18:44:21.656Z,16.25
2023-01-23T18:49:32.710Z,15.50
2023-01-23T18:54:40.633Z,17.50
2023-01-23T18:59:44.650Z,15.75
2023-01-23T19:05:11.481Z,17.00
2023-01-23T19:10:16.815Z,17.50
2023-01-23T19:15:31.026Z,16.50
2023-01-23T19:20:46.282Z,16.00
2023-01-23T19:25:50.535Z,22.25
2023-01-23T19:30:54.767Z,17.25
2023-01-23T19:35:59.188Z,14.50
2023-01-23T19:41:03.231Z,15.25
2023-01-23T19:46:07.492Z,17.00
2023-01-23T19:51:13.681Z,17.75
2023-01-23T19:56:21.692Z,13.00
2023-01-23T20:01:46.783Z,15.25
2023-01-23T20:06:52.965Z,18.25
2023-01-23T20:11:59.243Z,14.00
2023-01-23T20:17:03.320Z,16.00
2023-01-23T20:22:07.568Z,15.50
2023-01-23T20:27:11.616Z,19.00
2023-01-23T20:32:15.626Z,16.00
2023-01-23T20:37:19.724Z,14.75
2023-01-23T20:42:23.827Z,15.25
2023-01-23T20:47:27.919Z,16.25
2023-01-23T20:52:50.465Z,16.00
2023-01-23T20:58:12.578Z,15.00
2023-01-23T21:03:16.606Z,14.25
2023-01-23T21:08:20.623Z,17.25
2023-01-23T21:13:24.755Z,15.25
2023-01-23T21:18:29.114Z,15.00
2023-01-23T21:23:33.142Z,15.75
2023-01-23T21:28:37.878Z,14.75
2023-01-23T21:33:45.142Z,17.25
2023-01-23T21:38:51.257Z,15.00
2023-01-23T21:43:55.516Z,18.00
2023-01-23T21:48:59.474Z,14.00
2023-01-23T21:54:03.508Z,16.00
2023-01-23T21:59:07.551Z,13.75
2023-01-23T22:04:11.669Z,15.00
2023-01-23T22:09:18.064Z,15.75
2023-01-23T22:14:22.306Z,15.00
2023-01-23T22:19:26.367Z,19.00
2023-01-23T22:24:31.817Z,17.00
2023-01-23T22:29:35.801Z,16.75
2023-01-23T22:34:39.915Z,15.25
2023-01-23T22:39:43.989Z,14.50
2023-01-23T22:44:48.052Z,16.75
2023-01-23T22:49:52.143Z,16.00
2023-01-23T22:54:56.155Z,20.75
2023-01-23T23:00:00.232Z,18.25
2023-01-23T23:05:04.328Z,15.00
2023-01-23T23:10:09.667Z,17.00
2023-01-23T23:15:13.992Z,16.00
2023-01-23T23:20:18.213Z,13.75
2023-01-23T23:25:22.524Z,13.00
2023-01-23T23:30:26.746Z,17.75
2023-01-23T23:35:30.770Z,13.00
2023-01-23T23:40:34.798Z,17.75
2023-01-23T23:45:39.535Z,19.75
2023-01-23T23:50:44.366Z,15.00
2023-01-23T23:55:48.885Z,15.00
